createdAt,value
2023-09-11T05:28:23.477Z,77.80
2023-09-11T05:31:25.245Z,77.80
2023-09-11T05:34:26.959Z,77.70
2023-09-11T05:37:28.862Z,77.70
2023-09-11T05:40:30.705Z,77.70
2023-09-11T05:43:32.435Z,77.60
2023-09-11T05:46:36.917Z,77.70
2023-09-11T05:49:39.676Z,77.70
2023-09-11T05:52:41.386Z,77.80
2023-09-11T05:55:43.195Z,77.80
2023-09-11T05:58:44.929Z,77.70
2023-09-11T06:01:50.145Z,77.60
2023-09-11T06:04:51.838Z,77.50
2023-09-11T06:07:53.582Z,77.30
2023-09-11T06:10:55.346Z,77.30
2023-09-11T06:13:57.124Z,77.20
2023-09-11T06:16:58.887Z,77.10
2023-09-11T06:20:00.993Z,76.90
2023-09-11T06:23:03.420Z,76.80
2023-09-11T06:26:05.302Z,76.80
2023-09-11T06:29:07.150Z,76.60
2023-09-11T06:32:08.940Z,76.50
2023-09-11T06:35:11.233Z,76.30
2023-09-11T06:38:13.216Z,76.00
2023-09-11T06:41:30.069Z,75.80
2023-09-11T06:44:32.200Z,75.60
2023-09-11T06:47:34.458Z,75.40
2023-09-11T06:50:36.328Z,75.20
2023-09-11T06:53:38.138Z,75.10
2023-09-11T06:56:42.746Z,74.90
2023-09-11T06:59:44.694Z,74.60
2023-09-11T07:02:50.121Z,74.40
2023-09-11T07:05:52.773Z,74.00
2023-09-11T07:08:54.879Z,73.70
2023-09-11T07:11:57.666Z,73.30
2023-09-11T07:15:00.032Z,73.10
2023-09-11T07:18:02.063Z,72.70
2023-09-11T07:21:05.397Z,72.50
2023-09-11T07:24:07.474Z,72.10
2023-09-11T07:27:09.230Z,72.00
2023-09-11T07:30:11.496Z,71.80
2023-09-11T07:33:13.324Z,71.70
2023-09-11T07:36:15.305Z,71.50
2023-09-11T07:39:17.294Z,71.20
2023-09-11T07:42:19.115Z,71.10
2023-09-11T07:45:21.656Z,70.90
2023-09-11T07:48:23.479Z,70.90
2023-09-11T07:51:26.001Z,70.70
2023-09-11T07:54:27.951Z,70.50
2023-09-11T07:57:31.512Z,70.50
2023-09-11T08:00:33.328Z,70.20
2023-09-11T08:03:35.786Z,69.90
2023-09-11T08:06:49.827Z,69.70
2023-09-11T08:09:53.885Z,69.40
2023-09-11T08:12:55.704Z,69.40
2023-09-11T08:15:57.364Z,69.30
2023-09-11T08:18:59.410Z,69.20
2023-09-11T08:22:01.135Z,69.00
2023-09-11T08:25:03.459Z,69.00
2023-09-11T08:28:05.724Z,68.90
2023-09-11T08:31:07.550Z,68.80
2023-09-11T08:34:09.650Z,68.70
2023-09-11T08:37:11.471Z,68.60
2023-09-11T08:40:13.278Z,68.40
2023-09-11T08:43:15.002Z,68.30
2023-09-11T08:46:17.322Z,68.10
2023-09-11T08:49:20.285Z,68.00
2023-09-11T08:52:23.294Z,67.80
2023-09-11T08:55:25.712Z,67.80
2023-09-11T08:58:27.479Z,68.00
2023-09-11T09:01:29.429Z,67.90
2023-09-11T09:04:31.461Z,67.90
2023-09-11T09:07:33.641Z,67.80
2023-09-11T09:10:35.322Z,67.40
2023-09-11T09:13:37.250Z,66.60
2023-09-11T09:16:38.946Z,66.10
2023-09-11T09:19:40.880Z,65.80
2023-09-11T09:22:56.068Z,65.60
2023-09-11T09:26:04.886Z,65.40
2023-09-11T09:29:09.180Z,65.20
2023-09-11T09:32:11.108Z,65.20
2023-09-11T09:35:12.922Z,65.30
2023-09-11T09:38:14.740Z,65.40
2023-09-11T09:41:21.636Z,65.70
2023-09-11T09:44:33.342Z,65.80
2023-09-11T09:47:35.198Z,65.80
2023-09-11T09:51:00.012Z,65.70
2023-09-11T09:54:01.987Z,65.50
2023-09-11T09:57:03.911Z,65.30
2023-09-11T10:00:06.667Z,65.00
2023-09-11T10:03:09.428Z,65.10
2023-09-11T10:06:33.406Z,65.30
2023-09-11T10:09:36.174Z,65.20
2023-09-11T10:12:37.899Z,65.10
2023-09-11T10:15:40.581Z,64.90
2023-09-11T10:18:46.665Z,64.90
2023-09-11T10:21:48.635Z,65.00
2023-09-11T10:24:50.329Z,64.70
2023-09-11T10:28:01.962Z,64.30
2023-09-11T10:31:08.437Z,64.00
2023-09-11T10:34:11.066Z,63.70
2023-09-11T10:37:12.804Z,63.40
2023-09-11T10:40:14.905Z,63.20
2023-09-11T10:43:16.604Z,63.00
2023-09-11T10:46:31.605Z,62.80
2023-09-11T10:49:38.064Z,62.30
2023-09-11T10:52:39.775Z,62.10
2023-09-11T10:55:41.501Z,61.90
2023-09-11T10:58:43.390Z,61.40
2023-09-11T11:01:48.981Z,60.70
2023-09-11T11:04:50.723Z,60.40
2023-09-11T11:07:52.720Z,60.00
2023-09-11T11:10:57.469Z,59.60
2023-09-11T11:14:16.143Z,59.50
2023-09-11T11:17:18.008Z,59.30
2023-09-11T11:20:19.841Z,58.80
2023-09-11T11:23:21.535Z,58.50
2023-09-11T11:26:26.815Z,58.20
2023-09-11T11:29:28.636Z,58.00
2023-09-11T11:32:30.926Z,57.90
2023-09-11T11:35:32.636Z,57.70
2023-09-11T11:38:34.849Z,57.70
2023-09-11T11:41:40.947Z,57.20
2023-09-11T11:44:42.867Z,56.70
2023-09-11T11:47:45.027Z,56.30
2023-09-11T11:50:47.356Z,55.90
2023-09-11T11:53:49.098Z,55.40
2023-09-11T11:56:57.335Z,55.50
2023-09-11T12:00:00.494Z,55.70
2023-09-11T12:03:06.566Z,56.30
2023-09-11T12:06:08.473Z,56.30
2023-09-11T12:09:10.989Z,56.10
2023-09-11T12:12:12.758Z,55.70
2023-09-11T12:15:14.614Z,55.40
2023-09-11T12:18:16.463Z,55.30
2023-09-11T12:21:18.290Z,55.40
2023-09-11T12:24:20.009Z,54.90
2023-09-11T12:27:21.723Z,54.30
2023-09-11T12:30:23.484Z,54.00
2023-09-11T12:33:26.851Z,53.40
2023-09-11T12:36:29.016Z,53.00
2023-09-11T12:39:31.027Z,52.50
2023-09-11T12:42:32.706Z,52.60
2023-09-11T12:45:34.563Z,52.80
2023-09-11T12:48:41.415Z,52.90
2023-09-11T12:51:43.708Z,52.70
2023-09-11T12:54:45.436Z,52.90
2023-09-11T12:57:47.407Z,53.00
2023-09-11T13:00:49.431Z,53.00
2023-09-11T13:03:51.373Z,53.00
2023-09-11T13:06:53.202Z,53.20
2023-09-11T13:09:55.289Z,53.30
2023-09-11T13:12:57.060Z,53.30
2023-09-11T13:16:01.846Z,53.20
2023-09-11T13:20:03.937Z,53.10
2023-09-11T13:23:05.646Z,52.90
2023-09-11T13:26:08.330Z,52.30
2023-09-11T13:29:11.171Z,51.90
2023-09-11T13:32:12.896Z,51.90
2023-09-11T13:35:14.556Z,51.80
2023-09-11T13:38:16.489Z,51.90
2023-09-11T13:41:18.173Z,51.90
2023-09-11T13:44:19.888Z,51.70
2023-09-11T13:47:21.607Z,51.50
2023-09-11T13:50:23.345Z,51.50
2023-09-11T13:53:25.029Z,51.50
2023-09-11T13:56:26.711Z,51.50
2023-09-11T13:59:28.629Z,51.60
2023-09-11T14:02:30.356Z,51.50
2023-09-11T14:05:44.479Z,51.10
2023-09-11T14:08:47.442Z,50.70
2023-09-11T14:11:49.156Z,50.20
2023-09-11T14:14:50.992Z,49.90
2023-09-11T14:17:54.106Z,49.60
2023-09-11T14:20:55.801Z,49.70
2023-09-11T14:23:57.783Z,49.80
2023-09-11T14:26:59.593Z,49.70
2023-09-11T14:30:01.435Z,49.40
2023-09-11T14:33:03.422Z,49.30
2023-09-11T14:36:05.382Z,49.40
2023-09-11T14:39:07.437Z,49.30
2023-09-11T14:42:10.091Z,49.30
2023-09-11T14:45:11.833Z,49.70
2023-09-11T14:48:13.864Z,50.00
2023-09-11T14:51:15.726Z,50.00
2023-09-11T14:54:17.433Z,50.10
2023-09-11T14:57:19.662Z,50.10
2023-09-11T15:00:22.553Z,50.20
2023-09-11T15:03:24.591Z,50.20
2023-09-11T15:06:28.187Z,50.20
2023-09-11T15:09:30.256Z,50.40
2023-09-11T15:12:32.040Z,50.50
2023-09-11T15:15:33.786Z,50.60
2023-09-11T15:18:35.671Z,50.70
2023-09-11T15:21:37.455Z,50.90
2023-09-11T15:24:39.197Z,51.20
2023-09-11T15:27:40.976Z,51.40
2023-09-11T15:30:42.812Z,51.50
2023-09-11T15:33:44.578Z,51.70
2023-09-11T15:36:46.312Z,51.70
2023-09-11T15:39:48.302Z,51.70
2023-09-11T15:42:50.050Z,51.70
2023-09-11T15:45:51.756Z,51.50
2023-09-11T15:48:53.623Z,51.20
2023-09-11T15:51:55.333Z,51.00
2023-09-11T15:54:57.096Z,50.70
2023-09-11T15:57:59.461Z,50.50
2023-09-11T16:01:02.410Z,50.40
2023-09-11T16:04:04.169Z,50.50
2023-09-11T16:07:06.333Z,51.00
2023-09-11T16:10:08.861Z,51.40
2023-09-11T16:13:10.617Z,51.90
2023-09-11T16:16:12.518Z,51.70
2023-09-11T16:19:14.657Z,51.40
2023-09-11T16:22:16.651Z,51.10
2023-09-11T16:25:18.335Z,50.80
2023-09-11T16:28:26.064Z,50.60
2023-09-11T16:31:27.895Z,50.60
2023-09-11T16:34:29.609Z,50.70
2023-09-11T16:37:31.321Z,50.60
2023-09-11T16:40:35.200Z,50.70
2023-09-11T16:43:36.939Z,50.90
2023-09-11T16:46:38.684Z,51.20
2023-09-11T16:49:40.707Z,51.90
2023-09-11T16:52:42.433Z,52.40
2023-09-11T16:55:44.741Z,53.00
2023-09-11T16:58:46.553Z,53.60
2023-09-11T17:01:48.355Z,54.20
2023-09-11T17:04:50.055Z,54.60
2023-09-11T17:07:51.855Z,55.00
2023-09-11T17:10:54.270Z,55.50
2023-09-11T17:13:56.302Z,55.80
2023-09-11T17:16:57.978Z,56.20
2023-09-11T17:20:00.189Z,56.50
2023-09-11T17:23:01.916Z,56.90
2023-09-11T17:26:03.615Z,57.10
2023-09-11T17:29:05.389Z,57.30
2023-09-11T17:32:10.673Z,57.40
2023-09-11T17:35:12.788Z,57.60
2023-09-11T17:38:16.125Z,57.80
2023-09-11T17:41:17.843Z,58.00
2023-09-11T17:44:19.545Z,58.30
2023-09-11T17:47:21.522Z,58.50
2023-09-11T17:50:23.546Z,58.60
2023-09-11T17:53:25.356Z,58.80
2023-09-11T17:56:27.383Z,59.00
2023-09-11T17:59:29.077Z,59.00
2023-09-11T18:02:30.792Z,59.10
2023-09-11T18:05:33.230Z,59.30
2023-09-11T18:08:34.980Z,59.40
2023-09-11T18:11:36.671Z,59.60
2023-09-11T18:14:38.366Z,59.80
2023-09-11T18:17:41.894Z,60.10
2023-09-11T18:20:45.558Z,60.30
2023-09-11T18:23:47.454Z,60.40
2023-09-11T18:26:49.246Z,60.50
2023-09-11T18:29:50.942Z,60.70
2023-09-11T18:32:53.191Z,60.80
2023-09-11T18:36:02.796Z,61.10
2023-09-11T18:39:05.492Z,61.40
2023-09-11T18:42:08.500Z,61.60
2023-09-11T18:45:11.526Z,61.70
2023-09-11T18:48:13.579Z,62.00
2023-09-11T18:51:15.409Z,62.10
2023-09-11T18:54:19.284Z,62.40
2023-09-11T18:57:21.056Z,62.60
2023-09-11T19:00:23.549Z,62.70
2023-09-11T19:03:25.417Z,62.90
2023-09-11T19:06:27.478Z,63.00
2023-09-11T19:09:30.548Z,63.20
2023-09-11T19:12:32.408Z,63.40
2023-09-11T19:15:34.183Z,63.60
2023-09-11T19:18:38.285Z,63.80
2023-09-11T19:21:40.231Z,63.90
2023-09-11T19:24:42.795Z,64.20
2023-09-11T19:27:44.713Z,64.40
2023-09-11T19:30:46.420Z,64.70
2023-09-11T19:33:48.764Z,64.90
2023-09-11T19:36:50.788Z,65.00
2023-09-11T19:39:52.742Z,65.20
2023-09-11T19:42:54.446Z,65.40
2023-09-11T19:45:56.357Z,65.60
2023-09-11T19:48:58.348Z,65.90
2023-09-11T19:52:00.810Z,66.10
2023-09-11T19:55:02.553Z,66.30
2023-09-11T19:58:04.528Z,66.60
2023-09-11T20:01:06.518Z,66.70
2023-09-11T20:04:08.460Z,66.90
2023-09-11T20:07:10.350Z,67.10
2023-09-11T20:10:12.308Z,67.30
2023-09-11T20:13:14.702Z,67.50
2023-09-11T20:16:16.433Z,67.60
2023-09-11T20:19:19.136Z,67.70
2023-09-11T20:22:20.809Z,67.90
2023-09-11T20:25:22.500Z,67.90
2023-09-11T20:28:24.263Z,68.00
2023-09-11T20:31:26.069Z,68.10
2023-09-11T20:34:27.748Z,68.30
2023-09-11T20:37:31.100Z,68.30
2023-09-11T20:40:33.117Z,68.40
2023-09-11T20:43:35.310Z,68.40
2023-09-11T20:46:37.003Z,68.40
2023-09-11T20:49:38.825Z,68.60
2023-09-11T20:52:40.569Z,68.70
2023-09-11T20:55:42.314Z,68.90
2023-09-11T20:58:45.419Z,69.00
2023-09-11T21:01:47.182Z,69.20
2023-09-11T21:04:51.034Z,69.30
2023-09-11T21:07:52.959Z,69.50
2023-09-11T21:10:54.827Z,69.50
2023-09-11T21:13:56.525Z,69.60
2023-09-11T21:16:58.227Z,69.80
2023-09-11T21:20:00.159Z,69.90
2023-09-11T21:23:03.876Z,70.10
2023-09-11T21:26:06.566Z,70.20
2023-09-11T21:29:08.294Z,70.30
2023-09-11T21:32:09.974Z,70.40
2023-09-11T21:35:11.687Z,70.50
2023-09-11T21:38:13.469Z,70.70
2023-09-11T21:41:16.223Z,70.80
2023-09-11T21:44:17.926Z,70.80
2023-09-11T21:47:19.615Z,70.90
2023-09-11T21:50:21.716Z,71.00
2023-09-11T21:53:23.439Z,71.00
2023-09-11T21:56:25.113Z,71.10
2023-09-11T21:59:27.140Z,71.20
2023-09-11T22:02:28.902Z,71.20
2023-09-11T22:05:32.081Z,71.30
2023-09-11T22:08:33.948Z,71.30
2023-09-11T22:11:35.725Z,71.40
2023-09-11T22:14:37.411Z,71.50
2023-09-11T22:17:39.218Z,71.60
2023-09-11T22:20:41.242Z,71.60
2023-09-11T22:23:43.166Z,71.70
2023-09-11T22:26:45.001Z,71.70
2023-09-11T22:29:46.701Z,71.80
2023-09-11T22:32:55.867Z,72.00
2023-09-11T22:35:57.862Z,72.10
2023-09-11T22:38:59.807Z,72.30
2023-09-11T22:42:01.554Z,72.50
2023-09-11T22:45:03.413Z,72.60
2023-09-11T22:48:05.509Z,72.70
2023-09-11T22:51:07.523Z,72.70
2023-09-11T22:54:09.225Z,72.80
2023-09-11T22:57:11.058Z,73.00
2023-09-11T23:00:13.432Z,73.10
2023-09-11T23:03:15.348Z,73.20
